createdAt,value
2022-11-19T00:00:29.395Z,99696.98
2022-11-19T00:05:41.976Z,99699.90
2022-11-19T00:10:43.997Z,99703.02
2022-11-19T00:15:45.336Z,99703.66
2022-11-19T00:20:46.485Z,99706.30
2022-11-19T00:25:47.671Z,99705.63
2022-11-19T00:30:48.993Z,99711.80
2022-11-19T00:35:50.263Z,99713.66
2022-11-19T00:40:51.262Z,99712.10
2022-11-19T00:45:52.519Z,99714.88
2022-11-19T00:50:53.615Z,99714.08
2022-11-19T00:55:55.233Z,99706.92
2022-11-19T01:00:56.236Z,99708.09
2022-11-19T01:05:58.168Z,99709.71
2022-11-19T01:11:22.674Z,99710.84
2022-11-19T01:16:26.755Z,99711.77
2022-11-19T01:21:30.297Z,99712.98
2022-11-19T01:26:31.677Z,99711.30
2022-11-19T01:31:32.892Z,99712.01
2022-11-19T01:36:35.136Z,99715.16
2022-11-19T01:41:36.517Z,99711.48
2022-11-19T01:46:39.054Z,99710.52
2022-11-19T01:51:51.157Z,99711.23
2022-11-19T01:56:55.515Z,99709.81
2022-11-19T02:01:56.796Z,99710.10
2022-11-19T02:06:58.334Z,99708.46
2022-11-19T02:12:21.389Z,99705.74
2022-11-19T02:17:57.373Z,99705.69
2022-11-19T02:23:17.397Z,99706.91
2022-11-19T02:28:40.605Z,99704.66
2022-11-19T02:34:10.638Z,99701.81
2022-11-19T02:39:14.656Z,99700.09
2022-11-19T02:44:48.908Z,99706.36
2022-11-19T02:49:55.956Z,99709.30
2022-11-19T02:54:57.063Z,99709.37
2022-11-19T03:00:21.235Z,99710.29
2022-11-19T03:05:26.956Z,99708.46
2022-11-19T03:10:38.625Z,99707.16
2022-11-19T03:16:04.688Z,99708.81
2022-11-19T03:21:15.072Z,99710.09
2022-11-19T03:26:40.777Z,99709.27
2022-11-19T03:31:47.927Z,99712.56
2022-11-19T03:36:53.063Z,99721.17
2022-11-19T03:41:57.013Z,99716.52
2022-11-19T03:47:06.114Z,99719.16
2022-11-19T03:52:16.651Z,99720.09
2022-11-19T03:57:20.896Z,99717.88
2022-11-19T04:02:22.356Z,99713.77
2022-11-19T04:07:23.867Z,99717.38
2022-11-19T04:12:25.320Z,99717.02
2022-11-19T04:17:26.482Z,99716.82
2022-11-19T04:22:27.617Z,99721.23
2022-11-19T04:27:28.711Z,99721.41
2022-11-19T04:32:29.760Z,99722.81
2022-11-19T04:37:31.863Z,99725.42
2022-11-19T04:42:32.945Z,99723.15
2022-11-19T04:47:33.984Z,99720.26
2022-11-19T04:52:40.350Z,99727.23
2022-11-19T04:57:42.057Z,99727.77
2022-11-19T05:02:43.455Z,99722.41
2022-11-19T05:07:44.675Z,99716.60
2022-11-19T05:12:46.066Z,99715.25
2022-11-19T05:17:47.320Z,99713.24
2022-11-19T05:22:48.439Z,99712.22
2022-11-19T05:27:49.518Z,99707.99
2022-11-19T05:32:50.544Z,99705.43
2022-11-19T05:37:51.903Z,99706.67
2022-11-19T05:42:53.126Z,99715.80
2022-11-19T05:47:55.152Z,99718.28
2022-11-19T05:52:57.872Z,99720.70
2022-11-19T05:57:58.990Z,99722.99
2022-11-19T06:03:00.181Z,99730.92
2022-11-19T06:08:01.290Z,99735.58
2022-11-19T06:13:03.102Z,99736.82
2022-11-19T06:18:04.254Z,99743.42
2022-11-19T06:23:05.391Z,99754.55
2022-11-19T06:28:06.729Z,99761.60
2022-11-19T06:33:07.861Z,99766.45
2022-11-19T06:38:08.981Z,99767.63
2022-11-19T06:43:10.007Z,99768.79
2022-11-19T06:48:11.082Z,99768.68
2022-11-19T06:53:12.359Z,99771.07
2022-11-19T06:58:16.344Z,99771.95
2022-11-19T07:03:17.762Z,99768.45
2022-11-19T07:08:19.270Z,99772.36
2022-11-19T07:13:20.536Z,99773.35
2022-11-19T07:18:21.526Z,99774.20
2022-11-19T07:23:22.695Z,99775.15
2022-11-19T07:28:23.762Z,99778.34
2022-11-19T07:33:24.865Z,99777.03
2022-11-19T07:38:25.990Z,99779.91
2022-11-19T07:43:27.380Z,99777.25
2022-11-19T07:48:28.599Z,99771.59
2022-11-19T07:53:29.950Z,99774.96
2022-11-19T07:58:31.062Z,99778.59
2022-11-19T08:03:32.171Z,99778.23
2022-11-19T08:08:33.194Z,99778.06
2022-11-19T08:13:35.646Z,99781.80
2022-11-19T08:18:37.155Z,99781.38
2022-11-19T08:23:38.571Z,99779.49
2022-11-19T08:28:39.686Z,99782.98
2022-11-19T08:33:41.018Z,99784.89
2022-11-19T08:38:42.242Z,99786.07
2022-11-19T08:43:43.404Z,99792.75
2022-11-19T08:48:44.420Z,99792.52
2022-11-19T08:53:46.173Z,99790.45
2022-11-19T08:58:47.721Z,99793.03
2022-11-19T09:03:49.239Z,99790.10
2022-11-19T09:08:50.381Z,99792.52
2022-11-19T09:13:51.815Z,99801.11
2022-11-19T09:18:52.937Z,99798.31
2022-11-19T09:23:54.364Z,99798.98
2022-11-19T09:28:55.356Z,99801.30
2022-11-19T09:33:56.478Z,99801.00
2022-11-19T09:38:57.601Z,99804.70
2022-11-19T09:44:18.436Z,99803.52
2022-11-19T09:49:29.224Z,99802.03
2022-11-19T09:54:31.312Z,99805.66
2022-11-19T09:59:39.505Z,99807.17
2022-11-19T10:04:42.130Z,99806.11
2022-11-19T10:10:11.914Z,99804.80
2022-11-19T10:15:25.039Z,99805.56
2022-11-19T10:20:53.299Z,99806.05
2022-11-19T10:26:03.602Z,99803.23
2022-11-19T10:31:15.452Z,99795.16
2022-11-19T10:36:23.791Z,99794.75
2022-11-19T10:41:41.481Z,99794.06
2022-11-19T10:46:44.226Z,99796.17
2022-11-19T10:51:45.349Z,99793.93
2022-11-19T10:56:46.932Z,99797.27
2022-11-19T11:01:52.789Z,99794.36
2022-11-19T11:07:02.821Z,99786.93
2022-11-19T11:12:41.504Z,99787.58
2022-11-19T11:17:55.009Z,99792.48
2022-11-19T11:23:20.731Z,99792.23
2022-11-19T11:28:23.195Z,99793.74
2022-11-19T11:33:26.447Z,99791.73
2022-11-19T11:38:29.539Z,99789.23
2022-11-19T11:43:33.305Z,99788.85
2022-11-19T11:48:45.446Z,99785.45
2022-11-19T11:54:04.012Z,99784.16
2022-11-19T11:59:31.267Z,99785.58
2022-11-19T12:04:35.944Z,99787.68
2022-11-19T12:10:08.648Z,99790.86
2022-11-19T12:15:38.352Z,99791.04
2022-11-19T12:20:54.969Z,99789.48
2022-11-19T12:26:03.829Z,99791.59
2022-11-19T12:31:18.084Z,99790.64
2022-11-19T12:36:36.222Z,99786.99
2022-11-19T12:42:02.005Z,99787.61
2022-11-19T12:47:27.733Z,99786.48
2022-11-19T12:52:37.820Z,99785.72
2022-11-19T12:58:01.173Z,99792.64
2022-11-19T13:03:09.716Z,99790.92
2022-11-19T13:08:30.100Z,99794.56
2022-11-19T13:13:34.775Z,99796.39
2022-11-19T13:18:41.391Z,99809.67
2022-11-19T13:23:45.212Z,99812.48
2022-11-19T13:29:05.003Z,99813.84
2022-11-19T13:34:20.593Z,99814.54
2022-11-19T13:39:31.686Z,99813.55
2022-11-19T13:44:40.622Z,99817.04
2022-11-19T13:49:51.352Z,99824.30
2022-11-19T13:54:55.423Z,99827.22
2022-11-19T14:00:06.198Z,99827.75
2022-11-19T14:05:45.117Z,99827.05
2022-11-19T14:11:05.333Z,99827.74
2022-11-19T14:16:50.725Z,99831.60
2022-11-19T14:22:11.667Z,99841.74
2022-11-19T14:27:32.276Z,99850.74
2022-11-19T14:32:52.443Z,99849.80
2022-11-19T14:37:57.083Z,99850.52
2022-11-19T14:43:21.605Z,99848.55
2022-11-19T14:48:23.809Z,99858.10
2022-11-19T14:53:25.173Z,99860.04
2022-11-19T14:58:26.658Z,99859.61
2022-11-19T15:03:28.058Z,99866.05
2022-11-19T15:08:45.948Z,99868.04
2022-11-19T15:14:08.160Z,99863.24
2022-11-19T15:19:30.065Z,99859.86
2022-11-19T15:24:52.958Z,99858.10
2022-11-19T15:30:12.980Z,99858.73
2022-11-19T15:35:52.053Z,99859.32
2022-11-19T15:40:56.414Z,99860.00
2022-11-19T15:46:07.050Z,99859.89
2022-11-19T15:51:14.111Z,99863.62
2022-11-19T15:56:17.174Z,99866.83
2022-11-19T16:01:20.354Z,99863.55
2022-11-19T16:06:25.308Z,99867.02
2022-11-19T16:11:47.846Z,99873.83
2022-11-19T16:17:09.861Z,99879.95
2022-11-19T16:22:11.337Z,99877.58
2022-11-19T16:27:19.764Z,99873.80
2022-11-19T16:32:26.551Z,99873.04
2022-11-19T16:37:29.167Z,99875.13
2022-11-19T16:42:31.979Z,99876.21
2022-11-19T16:47:37.880Z,99880.03
2022-11-19T16:52:43.815Z,99877.42
2022-11-19T16:57:47.006Z,99884.39
2022-11-19T17:02:49.964Z,99888.70
2022-11-19T17:07:53.205Z,99890.98
2022-11-19T17:12:59.234Z,99899.48
2022-11-19T17:18:19.453Z,99905.66
2022-11-19T17:23:27.577Z,99904.29
2022-11-19T17:28:53.181Z,99901.60
2022-11-19T17:33:57.324Z,99904.45
2022-11-19T17:38:58.714Z,99910.55
2022-11-19T17:44:19.004Z,99904.85
2022-11-19T17:49:21.503Z,99899.80
2022-11-19T17:54:23.522Z,99899.87
2022-11-19T17:59:26.085Z,99906.00
2022-11-19T18:04:27.216Z,99905.48
2022-11-19T18:09:34.634Z,99908.27
2022-11-19T18:14:36.405Z,99912.90
2022-11-19T18:19:37.882Z,99907.13
2022-11-19T18:24:38.966Z,99907.98
2022-11-19T18:29:39.995Z,99910.11
2022-11-19T18:34:41.104Z,99910.44
2022-11-19T18:39:42.224Z,99914.70
2022-11-19T18:44:45.080Z,99915.75
2022-11-19T18:49:46.674Z,99922.28
2022-11-19T18:54:47.833Z,99920.70
2022-11-19T18:59:48.956Z,99917.34
2022-11-19T19:04:51.193Z,99915.11
2022-11-19T19:09:52.592Z,99910.25
2022-11-19T19:14:55.133Z,99915.79
2022-11-19T19:19:56.420Z,99914.11
2022-11-19T19:24:58.526Z,99914.25
2022-11-19T19:30:03.901Z,99916.88
2022-11-19T19:35:08.320Z,99912.29
2022-11-19T19:40:11.860Z,99912.27
2022-11-19T19:45:14.339Z,99914.75
2022-11-19T19:50:15.538Z,99910.18
2022-11-19T19:55:17.157Z,99909.00
2022-11-19T20:00:18.772Z,99912.46
2022-11-19T20:05:19.908Z,99913.95
2022-11-19T20:10:21.170Z,99914.02
2022-11-19T20:15:22.451Z,99915.05
2022-11-19T20:20:23.642Z,99911.45
2022-11-19T20:25:26.249Z,99912.03
2022-11-19T20:30:27.421Z,99912.77
2022-11-19T20:35:28.581Z,99907.60
2022-11-19T20:40:30.724Z,99910.12
2022-11-19T20:45:31.727Z,99911.55
2022-11-19T20:50:32.829Z,99912.30
2022-11-19T20:55:33.990Z,99911.21
2022-11-19T21:00:35.119Z,99910.14
2022-11-19T21:05:36.928Z,99912.69
2022-11-19T21:10:39.717Z,99908.98
2022-11-19T21:15:40.869Z,99905.63
2022-11-19T21:20:42.295Z,99907.20
2022-11-19T21:25:43.464Z,99903.83
2022-11-19T21:30:51.296Z,99904.77
2022-11-19T21:35:54.155Z,99907.19
2022-11-19T21:40:55.317Z,99904.55
2022-11-19T21:45:56.834Z,99900.25
2022-11-19T21:50:58.104Z,99894.73
2022-11-19T21:55:59.465Z,99888.27
2022-11-19T22:01:03.586Z,99884.89
2022-11-19T22:06:08.956Z,99882.18
2022-11-19T22:11:30.632Z,99874.09
2022-11-19T22:16:38.373Z,99876.20
2022-11-19T22:21:39.605Z,99877.11
2022-11-19T22:26:41.332Z,99877.15
2022-11-19T22:31:43.546Z,99879.31
2022-11-19T22:36:45.637Z,99879.05
2022-11-19T22:41:46.869Z,99878.55
2022-11-19T22:46:48.306Z,99876.45
2022-11-19T22:51:50.057Z,99883.61
2022-11-19T22:56:51.506Z,99885.33
2022-11-19T23:01:52.679Z,99880.83
2022-11-19T23:06:54.481Z,99875.88
2022-11-19T23:12:14.291Z,99875.29
2022-11-19T23:17:15.383Z,99879.83
2022-11-19T23:22:16.911Z,99870.24
2022-11-19T23:27:22.102Z,99864.41
2022-11-19T23:32:23.414Z,99862.77
2022-11-19T23:37:24.609Z,99858.77
2022-11-19T23:42:25.838Z,99855.39
2022-11-19T23:47:27.188Z,99857.67
2022-11-19T23:52:29.837Z,99856.10
2022-11-19T23:57:30.949Z,99852.05
